createdAt,value
2022-09-20T00:01:23.572Z,100933.94
2022-09-20T00:03:49.965Z,100939.09
2022-09-20T00:06:16.278Z,100940.16
2022-09-20T00:08:42.747Z,100938.31
2022-09-20T00:11:09.057Z,100948.50
2022-09-20T00:13:35.351Z,100945.56
2022-09-20T00:16:01.639Z,100947.44
2022-09-20T00:18:28.042Z,100940.41
2022-09-20T00:20:54.788Z,100948.50
2022-09-20T00:23:21.117Z,100950.13
2022-09-20T00:25:47.422Z,100949.31
2022-09-20T00:28:13.809Z,100943.94
2022-09-20T00:30:40.247Z,100943.94
2022-09-20T00:33:06.592Z,100946.84
2022-09-20T00:35:33.111Z,100955.50
2022-09-20T00:37:59.462Z,100951.19
2022-09-20T00:40:25.837Z,100954.72
2022-09-20T00:42:52.295Z,100954.72
2022-09-20T00:45:18.617Z,100955.75
2022-09-20T00:47:45.271Z,100959.28
2022-09-20T00:50:11.742Z,100957.66
2022-09-20T00:52:38.573Z,100964.09
2022-09-20T00:55:04.840Z,100963.03
2022-09-20T00:57:31.393Z,100971.13
2022-09-20T00:59:58.114Z,100969.50
2022-09-20T01:02:24.478Z,100971.13
2022-09-20T01:04:51.203Z,100968.44
2022-09-20T01:07:17.515Z,100971.34
2022-09-20T01:09:43.998Z,100976.97
2022-09-20T01:12:10.406Z,100977.59
2022-09-20T01:14:37.072Z,100983.22
2022-09-20T01:17:03.473Z,100977.81
2022-09-20T01:19:31.366Z,100975.13
2022-09-20T01:21:57.661Z,100980.50
2022-09-20T01:24:23.945Z,100979.69
2022-09-20T01:26:50.497Z,100986.69
2022-09-20T01:29:17.107Z,100980.75
2022-09-20T01:31:43.746Z,100981.53
2022-09-20T01:34:10.440Z,100976.75
2022-09-20T01:36:36.820Z,100975.34
2022-09-20T01:39:03.361Z,100976.41
2022-09-20T01:41:29.602Z,100980.75
2022-09-20T01:43:56.190Z,100982.59
2022-09-20T01:46:22.703Z,100984.25
2022-09-20T01:48:48.983Z,100984.50
2022-09-20T01:51:15.417Z,100980.75
2022-09-20T01:53:41.761Z,100980.75
2022-09-20T01:56:08.054Z,100978.84
2022-09-20T01:58:34.421Z,100982.59
2022-09-20T02:01:00.857Z,100983.44
2022-09-20T02:03:27.251Z,100978.28
2022-09-20T02:05:53.663Z,100989.06
2022-09-20T02:08:19.897Z,100981.81
2022-09-20T02:10:46.405Z,100980.13
2022-09-20T02:13:12.701Z,100980.13
2022-09-20T02:15:39.029Z,100980.13
2022-09-20T02:18:05.347Z,100986.38
2022-09-20T02:20:31.762Z,100988.00
2022-09-20T02:22:58.076Z,100983.91
2022-09-20T02:25:24.467Z,100985.53
2022-09-20T02:27:50.827Z,100990.34
2022-09-20T02:30:17.116Z,100997.38
2022-09-20T02:32:43.351Z,100993.03
2022-09-20T02:35:09.723Z,100993.03
2022-09-20T02:37:36.029Z,100997.38
2022-09-20T02:40:02.350Z,101001.72
2022-09-20T02:42:28.677Z,100997.16
2022-09-20T02:44:54.990Z,101000.31
2022-09-20T02:47:21.282Z,101003.00
2022-09-20T02:49:47.667Z,101005.69
2022-09-20T02:52:14.012Z,101004.91
2022-09-20T02:54:40.356Z,101011.91
2022-09-20T02:57:06.629Z,101007.59
2022-09-20T02:59:32.886Z,101006.75
2022-09-20T03:01:59.196Z,101006.75
2022-09-20T03:04:25.495Z,101012.97
2022-09-20T03:06:51.843Z,101010.50
2022-09-20T03:09:18.291Z,101017.53
2022-09-20T03:11:44.591Z,101027.25
2022-09-20T03:14:10.875Z,101018.59
2022-09-20T03:16:37.283Z,101014.84
2022-09-20T03:19:03.678Z,101021.06
2022-09-20T03:21:30.205Z,101020.47
2022-09-20T03:23:56.729Z,101023.16
2022-09-20T03:26:23.058Z,101022.09
2022-09-20T03:28:49.734Z,101020.47
2022-09-20T03:31:16.040Z,101021.31
2022-09-20T03:33:42.313Z,101018.84
2022-09-20T03:36:08.630Z,101019.66
2022-09-20T03:38:34.914Z,101021.31
2022-09-20T03:41:01.556Z,101024.22
2022-09-20T03:43:27.790Z,101019.66
2022-09-20T03:45:54.492Z,101022.59
2022-09-20T03:48:20.857Z,101031.75
2022-09-20T03:50:47.121Z,101026.09
2022-09-20T03:53:14.559Z,101026.34
2022-09-20T03:55:40.833Z,101026.34
2022-09-20T03:58:09.032Z,101033.59
2022-09-20T04:00:35.518Z,101033.59
2022-09-20T04:03:02.063Z,101033.59
2022-09-20T04:05:28.469Z,101031.75
2022-09-20T04:07:54.749Z,101032.53
2022-09-20T04:10:21.003Z,101036.31
2022-09-20T04:12:47.427Z,101037.38
2022-09-20T04:15:13.915Z,101034.66
2022-09-20T04:17:40.237Z,101040.06
2022-09-20T04:20:06.585Z,101039.22
2022-09-20T04:22:33.809Z,101046.25
2022-09-20T04:25:00.119Z,101040.06
2022-09-20T04:27:26.426Z,101054.34
2022-09-20T04:29:52.704Z,101042.97
2022-09-20T04:32:19.243Z,101044.97
2022-09-20T04:34:45.538Z,101044.63
2022-09-20T04:37:11.862Z,101052.72
2022-09-20T04:39:38.145Z,101054.56
2022-09-20T04:42:04.702Z,101051.06
2022-09-20T04:44:30.978Z,101052.94
2022-09-20T04:46:57.586Z,101053.75
2022-09-20T04:49:23.871Z,101059.97
2022-09-20T04:51:50.380Z,101061.03
2022-09-20T04:54:16.767Z,101062.66
2022-09-20T04:56:43.171Z,101062.91
2022-09-20T04:59:09.508Z,101069.09
2022-09-20T05:01:35.871Z,101066.63
2022-09-20T05:04:02.215Z,101074.72
2022-09-20T05:06:28.551Z,101076.41
2022-09-20T05:08:58.882Z,101076.41
2022-09-20T05:11:25.437Z,101086.13
2022-09-20T05:13:51.919Z,101084.22
2022-09-20T05:16:18.233Z,101090.69
2022-09-20T05:18:44.621Z,101097.97
2022-09-20T05:21:10.887Z,101093.59
2022-09-20T05:23:37.596Z,101096.53
2022-09-20T05:26:03.877Z,101099.00
2022-09-20T05:28:30.120Z,101103.81
2022-09-20T05:30:56.398Z,101115.66
2022-09-20T05:33:22.700Z,101114.69
2022-09-20T05:35:49.231Z,101122.78
2022-09-20T05:38:15.637Z,101121.03
2022-09-20T05:40:42.116Z,101127.22
2022-09-20T05:43:08.481Z,101122.69
2022-09-20T05:45:34.768Z,101133.69
2022-09-20T05:48:01.142Z,101121.03
2022-09-20T05:50:27.596Z,101129.69
2022-09-20T05:52:53.897Z,101131.53
2022-09-20T05:55:20.391Z,101129.13
2022-09-20T05:57:46.615Z,101134.75
2022-09-20T06:00:12.903Z,101137.44
2022-09-20T06:02:40.736Z,101138.84
2022-09-20T06:05:07.117Z,101142.00
2022-09-20T06:07:33.576Z,101138.84
2022-09-20T06:09:59.923Z,101145.44
2022-09-20T06:12:26.333Z,101137.22
2022-09-20T06:14:52.896Z,101145.75
2022-09-20T06:17:19.207Z,101142.00
2022-09-20T06:19:45.505Z,101148.81
2022-09-20T06:22:11.891Z,101148.22
2022-09-20T06:24:38.196Z,101146.34
2022-09-20T06:27:04.772Z,101145.53
2022-09-20T06:29:31.110Z,101152.31
2022-09-20T06:31:57.581Z,101155.25
2022-09-20T06:34:23.944Z,101145.53
2022-09-20T06:36:50.306Z,101147.63
2022-09-20T06:39:16.614Z,101142.22
2022-09-20T06:41:42.952Z,101143.88
2022-09-20T06:44:09.522Z,101153.63
2022-09-20T06:46:35.935Z,101148.22
2022-09-20T06:49:03.659Z,101150.31
2022-09-20T06:51:30.016Z,101150.09
2022-09-20T06:53:56.343Z,101146.81
2022-09-20T06:56:22.872Z,101153.00
2022-09-20T06:58:49.160Z,101149.50
2022-09-20T07:01:22.984Z,101149.72
2022-09-20T07:03:56.011Z,101157.38
2022-09-20T07:06:22.544Z,101160.88
2022-09-20T07:08:49.088Z,101161.31
2022-09-20T07:11:15.395Z,101161.56
2022-09-20T07:13:41.958Z,101161.78
2022-09-20T07:16:08.330Z,101165.50
2022-09-20T07:18:34.955Z,101170.00
2022-09-20T07:21:01.748Z,101159.22
2022-09-20T07:23:28.785Z,101163.25
2022-09-20T07:25:55.072Z,101175.78
2022-09-20T07:28:21.393Z,101177.47
2022-09-20T07:30:47.918Z,101185.81
2022-09-20T07:33:14.440Z,101183.13
2022-09-20T07:35:40.828Z,101182.94
2022-09-20T07:38:07.243Z,101186.50
2022-09-20T07:40:33.655Z,101192.97
2022-09-20T07:43:00.105Z,101192.38
2022-09-20T07:45:26.576Z,101184.75
2022-09-20T07:47:53.039Z,101201.44
2022-09-20T07:50:19.393Z,101191.09
2022-09-20T07:52:45.707Z,101197.53
2022-09-20T07:55:11.935Z,101204.81
2022-09-20T07:57:38.873Z,101199.66
2022-09-20T08:00:05.712Z,101202.38
2022-09-20T08:02:32.026Z,101208.31
2022-09-20T08:04:59.321Z,101202.28
2022-09-20T08:07:26.240Z,101204.16
2022-09-20T08:09:52.975Z,101206.59
2022-09-20T08:15:11.059Z,101207.00
2022-09-20T08:17:38.206Z,101206.38
2022-09-20T08:20:05.337Z,101206.81
2022-09-20T08:22:31.705Z,101215.59
2022-09-20T08:24:58.105Z,101215.13
2022-09-20T08:27:24.366Z,101214.38
2022-09-20T08:29:50.808Z,101212.44
2022-09-20T08:32:18.331Z,101220.41
2022-09-20T08:34:49.387Z,101218.03
2022-09-20T08:37:15.823Z,101225.66
2022-09-20T08:39:58.448Z,101222.63
2022-09-20T08:42:25.347Z,101222.69
2022-09-20T08:44:59.379Z,101220.88
2022-09-20T08:47:25.853Z,101216.34
2022-09-20T08:49:56.707Z,101224.34
2022-09-20T08:52:23.647Z,101225.31
2022-09-20T08:54:50.053Z,101226.50
2022-09-20T08:57:16.545Z,101226.75
2022-09-20T08:59:43.193Z,101227.31
2022-09-20T09:02:09.681Z,101235.56
2022-09-20T09:04:36.075Z,101227.81
2022-09-20T09:07:02.386Z,101229.84
2022-09-20T09:09:28.720Z,101226.53
2022-09-20T09:11:55.044Z,101223.25
2022-09-20T09:14:21.379Z,101225.13
2022-09-20T09:16:47.973Z,101223.97
2022-09-20T09:19:14.357Z,101228.59
2022-09-20T09:21:40.868Z,101226.94
2022-09-20T09:24:07.135Z,101221.78
2022-09-20T09:26:33.579Z,101225.50
2022-09-20T09:29:00.081Z,101223.06
2022-09-20T09:31:26.505Z,101217.91
2022-09-20T09:33:52.895Z,101226.25
2022-09-20T09:36:19.241Z,101222.94
2022-09-20T09:38:45.518Z,101232.13
2022-09-20T09:41:12.049Z,101222.06
2022-09-20T09:43:38.476Z,101226.06
2022-09-20T09:46:05.532Z,101227.09
2022-09-20T09:48:31.849Z,101218.66
2022-09-20T09:50:58.185Z,101219.72
2022-09-20T09:53:24.711Z,101222.66
2022-09-20T09:55:51.176Z,101217.72
2022-09-20T09:58:17.716Z,101218.78
2022-09-20T10:00:44.023Z,101218.19
2022-09-20T10:03:10.350Z,101215.97
2022-09-20T10:05:36.628Z,101219.75
2022-09-20T10:08:03.077Z,101205.88
2022-09-20T10:10:29.581Z,101199.91
2022-09-20T10:12:56.091Z,101209.88
2022-09-20T10:15:22.409Z,101207.63
2022-09-20T10:17:48.729Z,101208.69
2022-09-20T10:20:15.043Z,101216.25
2022-09-20T10:22:41.315Z,101213.78
2022-09-20T10:25:07.589Z,101220.47
2022-09-20T10:27:33.893Z,101214.47
2022-09-20T10:30:00.300Z,101219.31
2022-09-20T10:32:26.871Z,101223.03
2022-09-20T10:34:53.105Z,101221.38
2022-09-20T10:37:19.469Z,101225.13
2022-09-20T10:39:45.773Z,101228.06
2022-09-20T10:42:12.113Z,101227.25
2022-09-20T10:44:38.449Z,101223.16
2022-09-20T10:47:04.766Z,101227.13
2022-09-20T10:49:31.127Z,101225.25
2022-09-20T10:51:57.663Z,101233.59
2022-09-20T10:54:24.587Z,101231.13
2022-09-20T10:56:50.927Z,101226.78
2022-09-20T10:59:17.262Z,101237.25
2022-09-20T11:01:44.028Z,101231.00
2022-09-20T11:04:10.529Z,101231.25
2022-09-20T11:06:36.873Z,101233.38
2022-09-20T11:09:03.296Z,101235.25
2022-09-20T11:11:29.802Z,101220.94
2022-09-20T11:13:56.224Z,101218.47
2022-09-20T11:16:22.568Z,101224.94
2022-09-20T11:18:49.314Z,101233.03
2022-09-20T11:21:15.718Z,101229.50
2022-09-20T11:23:42.166Z,101223.25
2022-09-20T11:26:08.682Z,101228.09
2022-09-20T11:28:34.967Z,101217.28
2022-09-20T11:31:01.475Z,101227.72
2022-09-20T11:33:27.721Z,101232.88
2022-09-20T11:35:54.095Z,101230.41
2022-09-20T11:38:21.039Z,101224.44
2022-09-20T11:40:47.375Z,101231.72
2022-09-20T11:43:13.702Z,101228.22
2022-09-20T11:45:40.514Z,101230.28
2022-09-20T11:48:06.939Z,101223.25
2022-09-20T11:50:33.261Z,101227.03
2022-09-20T11:52:59.582Z,101233.00
2022-09-20T11:55:25.929Z,101232.44
2022-09-20T11:57:52.295Z,101230.78
2022-09-20T12:00:18.941Z,101226.69
2022-09-20T12:02:45.532Z,101220.00
2022-09-20T12:05:11.985Z,101228.31
2022-09-20T12:07:39.697Z,101216.91
2022-09-20T12:10:06.528Z,101219.84
2022-09-20T12:12:32.785Z,101214.44
2022-09-20T12:14:59.249Z,101229.22
2022-09-20T12:17:25.687Z,101220.91
2022-09-20T12:19:51.986Z,101217.63
2022-09-20T12:22:18.321Z,101220.34
2022-09-20T12:24:45.649Z,101220.34
2022-09-20T12:27:13.093Z,101224.06
2022-09-20T12:29:39.389Z,101234.88
2022-09-20T12:32:05.671Z,101245.66
2022-09-20T12:34:32.017Z,101260.81
2022-09-20T12:36:58.393Z,101262.13
2022-09-20T12:39:29.463Z,101272.09
2022-09-20T12:41:56.622Z,101277.47
2022-09-20T12:44:22.958Z,101273.72
2022-09-20T12:46:49.603Z,101280.75
2022-09-20T12:49:15.880Z,101283.94
2022-09-20T12:51:43.084Z,101284.50
2022-09-20T12:54:09.397Z,101282.03
2022-09-20T12:56:36.093Z,101297.88
2022-09-20T12:59:02.428Z,101296.03
2022-09-20T13:01:28.795Z,101295.78
2022-09-20T13:03:55.167Z,101300.13
2022-09-20T13:06:21.583Z,101307.63
2022-09-20T13:08:47.941Z,101300.81
2022-09-20T13:11:14.182Z,101310.81
2022-09-20T13:13:40.618Z,101312.44
2022-09-20T13:16:07.088Z,101322.63
2022-09-20T13:18:33.404Z,101318.28
2022-09-20T13:20:59.649Z,101325.81
2022-09-20T13:23:26.013Z,101319.59
2022-09-20T13:25:52.292Z,101317.94
2022-09-20T13:28:21.201Z,101323.56
2022-09-20T13:30:48.388Z,101322.50
2022-09-20T13:33:14.661Z,101322.72
2022-09-20T13:35:41.145Z,101314.63
2022-09-20T13:38:07.457Z,101318.16
2022-09-20T13:40:34.273Z,101314.63
2022-09-20T13:43:22.111Z,101314.63
2022-09-20T13:45:47.088Z,101308.44
2022-09-20T13:48:13.441Z,101320.50
2022-09-20T13:50:44.870Z,101310.53
2022-09-20T13:53:23.498Z,101320.75
2022-09-20T13:55:58.952Z,101316.41
2022-09-20T13:58:25.224Z,101323.44
2022-09-20T14:00:51.484Z,101324.72
2022-09-20T14:03:18.313Z,101326.38
2022-09-20T14:05:44.605Z,101323.44
2022-09-20T14:08:10.902Z,101328.84
2022-09-20T14:10:37.412Z,101326.94
2022-09-20T14:13:03.869Z,101327.78
2022-09-20T14:15:31.104Z,101328.84
2022-09-20T14:17:57.444Z,101329.66
2022-09-20T14:20:23.853Z,101335.88
2022-09-20T14:22:50.138Z,101335.88
2022-09-20T14:25:16.380Z,101331.53
2022-09-20T14:27:42.748Z,101335.88
2022-09-20T14:30:09.405Z,101334.81
2022-09-20T14:32:35.737Z,101336.94
2022-09-20T14:35:02.051Z,101339.41
2022-09-20T14:37:28.325Z,101345.59
2022-09-20T14:39:55.086Z,101347.50
2022-09-20T14:42:21.508Z,101351.00
2022-09-20T14:44:47.873Z,101350.19
2022-09-20T14:47:14.283Z,101351.00
2022-09-20T14:49:40.584Z,101355.00
2022-09-20T14:52:07.020Z,101343.13
2022-09-20T14:54:33.410Z,101350.44
2022-09-20T14:56:59.717Z,101354.75
2022-09-20T14:59:25.945Z,101348.53
2022-09-20T15:01:52.453Z,101345.59
2022-09-20T15:04:18.704Z,101352.06
2022-09-20T15:06:44.970Z,101348.31
2022-09-20T15:09:11.569Z,101349.94
2022-09-20T15:11:37.823Z,101347.25
2022-09-20T15:14:04.325Z,101356.19
2022-09-20T15:16:31.032Z,101356.19
2022-09-20T15:18:57.341Z,101363.44
2022-09-20T15:21:23.680Z,101354.53
2022-09-20T15:23:49.928Z,101363.69
2022-09-20T15:26:16.170Z,101362.88
2022-09-20T15:28:42.445Z,101370.13
2022-09-20T15:31:08.987Z,101368.47
2022-09-20T15:33:35.321Z,101376.56
2022-09-20T15:36:01.692Z,101368.94
2022-09-20T15:38:28.007Z,101372.47
2022-09-20T15:40:54.332Z,101377.88
2022-09-20T15:43:20.594Z,101386.78
2022-09-20T15:45:46.904Z,101386.19
2022-09-20T15:48:13.551Z,101398.88
2022-09-20T15:50:39.794Z,101394.50
2022-09-20T15:53:06.000Z,101400.72
2022-09-20T15:55:32.321Z,101393.69
2022-09-20T15:57:58.711Z,101391.22
2022-09-20T16:00:24.971Z,101393.69
2022-09-20T16:02:51.455Z,101397.19
2022-09-20T16:05:17.808Z,101408.00
2022-09-20T16:07:44.345Z,101401.56
2022-09-20T16:10:11.209Z,101412.81
2022-09-20T16:12:37.480Z,101410.69
2022-09-20T16:15:04.202Z,101417.97
2022-09-20T16:17:30.475Z,101416.09
2022-09-20T16:19:56.724Z,101412.81
2022-09-20T16:22:23.252Z,101414.44
2022-09-20T16:24:49.494Z,101417.59
2022-09-20T16:27:15.774Z,101418.19
2022-09-20T16:29:42.100Z,101421.13
2022-09-20T16:32:08.369Z,101422.19
2022-09-20T16:34:34.714Z,101418.88
2022-09-20T16:37:01.096Z,101425.69
2022-09-20T16:39:27.313Z,101433.19
2022-09-20T16:41:53.605Z,101428.63
2022-09-20T16:44:19.904Z,101437.53
2022-09-20T16:46:46.338Z,101426.97
2022-09-20T16:49:12.637Z,101425.31
2022-09-20T16:51:39.159Z,101431.56
2022-09-20T16:54:05.652Z,101432.59
2022-09-20T16:56:31.935Z,101431.78
2022-09-20T16:58:58.193Z,101437.97
2022-09-20T17:01:24.487Z,101436.34
2022-09-20T17:03:50.780Z,101441.50
2022-09-20T17:06:17.087Z,101440.69
2022-09-20T17:08:43.602Z,101447.13
2022-09-20T17:11:10.099Z,101446.06
2022-09-20T17:13:36.401Z,101450.66
2022-09-20T17:16:02.792Z,101450.66
2022-09-20T17:18:29.304Z,101450.66
2022-09-20T17:20:55.644Z,101455.22
2022-09-20T17:23:22.105Z,101461.47
2022-09-20T17:25:48.617Z,101463.31
2022-09-20T17:28:14.906Z,101469.34
2022-09-20T17:30:41.589Z,101468.50
2022-09-20T17:33:07.961Z,101467.66
2022-09-20T17:35:34.221Z,101481.16
2022-09-20T17:38:00.676Z,101472.25
2022-09-20T17:40:26.957Z,101474.94
2022-09-20T17:42:53.386Z,101480.56
2022-09-20T17:45:19.697Z,101490.31
2022-09-20T17:47:46.733Z,101484.31
2022-09-20T17:50:13.013Z,101488.88
2022-09-20T17:52:40.395Z,101492.41
2022-09-20T17:55:06.887Z,101499.44
2022-09-20T17:57:33.314Z,101498.41
2022-09-20T17:59:59.936Z,101504.19
2022-09-20T18:02:26.289Z,101505.06
2022-09-20T18:04:52.581Z,101504.19
2022-09-20T18:07:18.897Z,101521.25
2022-09-20T18:09:45.193Z,101524.78
2022-09-20T18:12:16.656Z,101515.00
2022-09-20T18:14:44.506Z,101524.78
2022-09-20T18:17:10.752Z,101521.44
2022-09-20T18:19:37.103Z,101528.47
2022-09-20T18:22:03.386Z,101526.84
2022-09-20T18:24:29.699Z,101534.13
2022-09-20T18:26:56.132Z,101530.59
2022-09-20T18:29:22.386Z,101539.28
2022-09-20T18:31:48.863Z,101538.47
2022-09-20T18:34:15.148Z,101539.75
2022-09-20T18:36:41.648Z,101544.91
2022-09-20T18:39:07.981Z,101547.84
2022-09-20T18:41:34.283Z,101546.19
2022-09-20T18:44:00.553Z,101548.06
2022-09-20T18:46:27.072Z,101555.94
2022-09-20T18:48:53.603Z,101553.44
2022-09-20T18:51:20.356Z,101560.28
2022-09-20T18:53:46.656Z,101558.41
2022-09-20T18:56:12.912Z,101555.72
2022-09-20T18:58:39.185Z,101566.72
2022-09-20T19:01:05.847Z,101564.03
2022-09-20T19:03:32.246Z,101567.78
2022-09-20T19:05:58.552Z,101569.41
2022-09-20T19:08:24.844Z,101571.06
2022-09-20T19:10:51.091Z,101575.63
2022-09-20T19:13:17.345Z,101572.13
2022-09-20T19:15:43.562Z,101572.72
2022-09-20T19:18:10.008Z,101579.16
2022-09-20T19:20:36.295Z,101581.84
2022-09-20T19:23:02.905Z,101581.00
2022-09-20T19:25:29.175Z,101588.31
2022-09-20T19:27:55.892Z,101587.25
2022-09-20T19:30:22.169Z,101596.81
2022-09-20T19:32:48.390Z,101599.50
2022-09-20T19:35:14.817Z,101608.84
2022-09-20T19:37:41.185Z,101605.75
2022-09-20T19:40:07.545Z,101601.56
2022-09-20T19:42:33.835Z,101610.28
2022-09-20T19:45:00.087Z,101605.91
2022-09-20T19:47:26.494Z,101612.44
2022-09-20T19:49:52.804Z,101610.09
2022-09-20T19:52:19.318Z,101620.69
2022-09-20T19:54:46.524Z,101616.09
2022-09-20T19:57:13.035Z,101617.16
2022-09-20T19:59:39.435Z,101615.28
2022-09-20T20:02:06.026Z,101614.06
2022-09-20T20:04:32.288Z,101617.97
2022-09-20T20:06:58.794Z,101621.72
2022-09-20T20:09:25.410Z,101619.84
2022-09-20T20:11:51.862Z,101619.25
2022-09-20T20:14:18.180Z,101627.34
2022-09-20T20:16:44.524Z,101622.75
2022-09-20T20:19:10.852Z,101624.88
2022-09-20T20:21:37.152Z,101628.38
2022-09-20T20:24:03.631Z,101632.97
2022-09-20T20:26:29.927Z,101635.44
2022-09-20T20:28:56.469Z,101634.00
2022-09-20T20:31:22.838Z,101638.34
2022-09-20T20:33:49.181Z,101641.25
2022-09-20T20:36:15.532Z,101642.53
2022-09-20T20:38:41.909Z,101638.78
2022-09-20T20:41:08.236Z,101646.28
2022-09-20T20:43:34.638Z,101639.00
2022-09-20T20:46:00.902Z,101639.84
2022-09-20T20:48:27.206Z,101642.53
2022-09-20T20:50:53.722Z,101647.31
2022-09-20T20:53:20.241Z,101651.28
2022-09-20T20:55:46.488Z,101656.25
2022-09-20T20:58:12.812Z,101654.59
2022-09-20T21:00:39.108Z,101658.34
2022-09-20T21:03:05.468Z,101665.59
2022-09-20T21:05:31.996Z,101667.25
2022-09-20T21:07:58.288Z,101666.44
2022-09-20T21:10:24.661Z,101664.53
2022-09-20T21:12:50.948Z,101671.00
2022-09-20T21:15:17.213Z,101672.03
2022-09-20T21:17:43.478Z,101678.47
2022-09-20T21:20:09.715Z,101674.97
2022-09-20T21:22:36.327Z,101683.84
2022-09-20T21:25:02.609Z,101675.75
2022-09-20T21:27:28.891Z,101673.06
2022-09-20T21:29:55.137Z,101674.13
2022-09-20T21:32:21.439Z,101682.22
2022-09-20T21:34:48.654Z,101683.25
2022-09-20T21:37:14.924Z,101685.97
2022-09-20T21:39:41.308Z,101676.00
2022-09-20T21:42:07.899Z,101683.47
2022-09-20T21:44:34.208Z,101684.31
2022-09-20T21:47:00.524Z,101679.72
2022-09-20T21:49:26.761Z,101679.13
2022-09-20T21:51:53.111Z,101678.28
2022-09-20T21:54:19.377Z,101681.63
2022-09-20T21:56:45.844Z,101682.66
2022-09-20T21:59:12.099Z,101684.53
2022-09-20T22:01:38.386Z,101685.38
2022-09-20T22:04:04.925Z,101680.19
2022-09-20T22:06:31.435Z,101683.69
2022-09-20T22:08:57.794Z,101691.78
2022-09-20T22:11:24.096Z,101687.44
2022-09-20T22:13:50.512Z,101696.38
2022-09-20T22:16:16.809Z,101702.78
2022-09-20T22:18:43.259Z,101701.97
2022-09-20T22:21:09.838Z,101707.38
2022-09-20T22:23:36.180Z,101705.94
2022-09-20T22:26:02.437Z,101704.88
2022-09-20T22:28:28.689Z,101704.88
2022-09-20T22:30:55.311Z,101707.78
2022-09-20T22:33:21.620Z,101707.78
2022-09-20T22:35:47.901Z,101714.84
2022-09-20T22:38:14.183Z,101710.50
2022-09-20T22:40:40.451Z,101711.34
2022-09-20T22:43:06.715Z,101708.84
2022-09-20T22:45:33.049Z,101723.13
2022-09-20T22:47:59.340Z,101725.84
2022-09-20T22:50:25.708Z,101720.69
2022-09-20T22:52:51.988Z,101721.28
2022-09-20T22:55:18.500Z,101724.19
2022-09-20T22:57:44.884Z,101717.16
2022-09-20T23:00:11.189Z,101723.59
2022-09-20T23:02:37.603Z,101715.50
2022-09-20T23:05:03.967Z,101713.88
2022-09-20T23:07:30.324Z,101722.75
2022-09-20T23:09:56.573Z,101722.75
2022-09-20T23:12:22.945Z,101717.38
2022-09-20T23:14:49.259Z,101711.97
2022-09-20T23:17:15.636Z,101709.91
2022-09-20T23:19:42.156Z,101703.06
2022-09-20T23:22:08.458Z,101715.72
2022-09-20T23:24:34.712Z,101718.19
2022-09-20T23:27:01.069Z,101715.72
2022-09-20T23:29:27.333Z,101716.78
2022-09-20T23:31:53.694Z,101722.16
2022-09-20T23:34:19.925Z,101725.88
2022-09-20T23:36:46.233Z,101730.47
2022-09-20T23:39:12.514Z,101722.16
2022-09-20T23:41:38.937Z,101732.31
2022-09-20T23:44:05.301Z,101732.13
2022-09-20T23:46:31.566Z,101731.50
2022-09-20T23:48:58.352Z,101725.28
2022-09-20T23:51:24.811Z,101730.69
2022-09-20T23:53:51.106Z,101727.13
2022-09-20T23:56:17.367Z,101732.78
2022-09-20T23:58:43.571Z,101731.50
